createdAt,value
2023-04-14T00:00:48.115Z,95.9940
2023-04-14T00:01:50.856Z,96.2090
2023-04-14T00:02:51.261Z,96.2915
2023-04-14T00:03:51.659Z,96.2335
2023-04-14T00:04:52.124Z,96.2240
2023-04-14T00:05:52.360Z,96.3499
2023-04-14T00:06:54.969Z,96.5107
2023-04-14T00:07:57.625Z,96.5595
2023-04-14T00:08:57.943Z,96.7370
2023-04-14T00:09:58.194Z,96.8358
2023-04-14T00:11:00.813Z,96.9088
2023-04-14T00:12:03.400Z,96.8961
2023-04-14T00:13:06.007Z,96.8736
2023-04-14T00:14:08.650Z,96.7903
2023-04-14T00:15:08.703Z,96.8786
2023-04-14T00:16:11.308Z,96.9128
2023-04-14T00:17:13.923Z,96.9026
2023-04-14T00:18:14.081Z,96.9533
2023-04-14T00:19:14.076Z,96.9337
2023-04-14T00:20:16.687Z,96.9194
2023-04-14T00:21:19.294Z,96.8351
2023-04-14T00:22:22.146Z,96.8013
2023-04-14T00:23:22.252Z,96.8793
2023-04-14T00:24:24.849Z,96.8266
2023-04-14T00:25:24.904Z,96.8558
2023-04-14T00:26:27.538Z,96.8259
2023-04-14T00:27:27.566Z,96.9000
2023-04-14T00:28:30.185Z,96.9638
2023-04-14T00:29:32.833Z,97.0505
2023-04-14T00:30:32.900Z,97.0277
2023-04-14T00:31:35.493Z,97.0155
2023-04-14T00:32:35.770Z,96.9944
2023-04-14T00:33:35.808Z,97.0433
2023-04-14T00:34:35.886Z,97.0166
2023-04-14T00:35:38.531Z,97.2086
2023-04-14T00:36:38.626Z,97.3383
2023-04-14T00:37:41.239Z,97.4165
2023-04-14T00:38:43.816Z,97.3327
2023-04-14T00:39:43.897Z,97.3908
2023-04-14T00:40:43.989Z,97.4218
2023-04-14T00:41:44.087Z,97.2402
2023-04-14T00:42:46.658Z,97.2629
2023-04-14T00:43:49.366Z,97.2545
2023-04-14T00:44:49.402Z,97.1326
2023-04-14T00:45:51.970Z,96.8129
2023-04-14T00:46:54.600Z,96.7411
2023-04-14T00:47:57.259Z,96.5852
2023-04-14T00:48:57.381Z,96.4811
2023-04-14T00:49:57.368Z,96.3999
2023-04-14T00:50:59.989Z,96.4894
2023-04-14T00:52:02.640Z,96.2641
2023-04-14T00:53:05.237Z,96.0564
2023-04-14T00:54:07.823Z,96.0149
2023-04-14T00:55:10.486Z,95.8570
2023-04-14T00:56:13.156Z,95.8333
2023-04-14T00:57:13.146Z,95.7960
2023-04-14T00:58:15.765Z,95.6311
2023-04-14T00:59:18.379Z,95.3403
2023-04-14T01:00:18.434Z,95.0946
2023-04-14T01:01:21.105Z,95.0991
2023-04-14T01:02:21.205Z,95.1404
2023-04-14T01:03:21.421Z,95.2147
2023-04-14T01:04:21.567Z,95.1220
2023-04-14T01:05:21.637Z,95.0306
2023-04-14T01:06:24.242Z,94.9883
2023-04-14T01:07:24.553Z,94.9238
2023-04-14T01:08:24.832Z,95.0340
2023-04-14T01:09:27.486Z,95.1465
2023-04-14T01:10:30.070Z,95.1430
2023-04-14T01:11:32.695Z,95.2815
2023-04-14T01:12:35.309Z,95.3508
2023-04-14T01:13:37.920Z,95.3861
2023-04-14T01:14:40.521Z,95.5233
2023-04-14T01:15:43.164Z,95.5673
2023-04-14T01:16:43.172Z,95.4589
2023-04-14T01:17:45.841Z,95.5653
2023-04-14T01:18:45.879Z,95.4403
2023-04-14T01:19:48.477Z,95.3841
2023-04-14T01:20:51.081Z,95.2941
2023-04-14T01:21:53.710Z,95.2821
2023-04-14T01:22:56.320Z,95.3507
2023-04-14T01:23:58.947Z,95.4451
2023-04-14T01:24:59.088Z,95.3449
2023-04-14T01:26:01.667Z,95.3985
2023-04-14T01:27:04.319Z,95.3295
2023-04-14T01:28:06.972Z,95.1864
2023-04-14T01:29:09.585Z,95.1564
2023-04-14T01:30:12.194Z,95.1623
2023-04-14T01:31:14.835Z,95.1396
2023-04-14T01:32:17.405Z,95.1223
2023-04-14T01:33:20.021Z,95.1930
2023-04-14T01:34:22.622Z,95.1693
2023-04-14T01:35:25.292Z,95.2630
2023-04-14T01:36:27.927Z,95.3406
2023-04-14T01:37:30.502Z,95.2619
2023-04-14T01:38:33.097Z,95.3292
2023-04-14T01:39:35.729Z,95.2543
2023-04-14T01:40:38.394Z,95.3419
2023-04-14T01:41:41.009Z,95.4185
2023-04-14T01:42:43.630Z,95.5069
2023-04-14T01:43:46.174Z,95.6072
2023-04-14T01:44:48.830Z,95.7210
2023-04-14T01:45:51.466Z,95.7425
2023-04-14T01:46:54.041Z,95.7460
2023-04-14T01:47:56.628Z,95.7937
2023-04-14T01:48:59.568Z,95.7613
2023-04-14T01:49:59.911Z,95.6019
2023-04-14T01:51:02.524Z,95.7966
2023-04-14T01:52:02.550Z,95.8196
2023-04-14T01:53:05.184Z,95.8632
2023-04-14T01:54:07.762Z,95.8614
2023-04-14T01:55:10.338Z,95.6786
2023-04-14T01:56:12.968Z,95.7228
2023-04-14T01:57:15.527Z,95.7188
2023-04-14T01:58:18.116Z,95.6101
2023-04-14T01:59:20.747Z,95.6811
2023-04-14T02:00:23.317Z,95.7306
2023-04-14T02:01:26.059Z,95.5129
2023-04-14T02:02:26.256Z,95.3077
2023-04-14T02:03:26.476Z,95.3209
2023-04-14T02:04:26.545Z,95.1963
2023-04-14T02:05:29.213Z,95.0996
2023-04-14T02:06:31.911Z,94.9955
2023-04-14T02:07:32.037Z,94.8654
2023-04-14T02:08:32.100Z,94.9614
2023-04-14T02:09:34.757Z,94.9556
2023-04-14T02:10:34.840Z,95.0376
2023-04-14T02:11:37.534Z,95.1624
2023-04-14T02:12:37.617Z,95.0098
2023-04-14T02:13:40.271Z,94.9973
2023-04-14T02:14:40.327Z,94.9461
2023-04-14T02:15:42.968Z,95.0342
2023-04-14T02:16:45.741Z,94.9568
2023-04-14T02:17:45.995Z,94.9542
2023-04-14T02:18:46.055Z,94.9571
2023-04-14T02:19:46.204Z,95.0358
2023-04-14T02:20:48.867Z,95.0387
2023-04-14T02:21:48.960Z,95.0321
2023-04-14T02:22:49.192Z,95.1733
2023-04-14T02:23:49.321Z,95.1453
2023-04-14T02:24:51.963Z,95.1645
2023-04-14T02:25:52.105Z,95.1367
2023-04-14T02:26:54.797Z,95.1745
2023-04-14T02:27:54.885Z,95.2073
2023-04-14T02:28:57.534Z,95.3922
2023-04-14T02:29:57.728Z,95.5479
2023-04-14T02:30:57.921Z,95.3852
2023-04-14T02:31:58.024Z,95.3722
2023-04-14T02:33:00.758Z,95.4419
2023-04-14T02:34:00.818Z,95.5686
2023-04-14T02:35:03.590Z,95.6721
2023-04-14T02:36:03.685Z,95.7163
2023-04-14T02:37:03.828Z,95.8057
2023-04-14T02:38:06.495Z,95.8932
2023-04-14T02:39:06.640Z,95.9867
2023-04-14T02:40:09.284Z,96.0387
2023-04-14T02:41:09.472Z,96.1590
2023-04-14T02:42:09.601Z,96.2572
2023-04-14T02:43:09.758Z,96.3156
2023-04-14T02:44:09.823Z,96.4042
2023-04-14T02:45:09.944Z,96.3134
2023-04-14T02:46:12.660Z,96.3294
2023-04-14T02:47:12.765Z,96.3234
2023-04-14T02:48:15.456Z,96.4162
2023-04-14T02:49:15.544Z,96.4822
2023-04-14T02:50:15.661Z,96.4831
2023-04-14T02:51:18.310Z,96.4670
2023-04-14T02:52:20.970Z,96.5085
2023-04-14T02:53:23.611Z,96.5826
2023-04-14T02:54:26.294Z,96.6114
2023-04-14T02:55:29.159Z,96.5609
2023-04-14T02:56:29.306Z,96.5144
2023-04-14T02:57:32.036Z,96.4458
2023-04-14T02:58:32.094Z,96.4148
2023-04-14T02:59:34.751Z,96.3915
2023-04-14T03:00:34.845Z,96.3450
2023-04-14T03:01:37.513Z,96.3499
2023-04-14T03:02:37.770Z,96.4618
2023-04-14T03:03:37.982Z,96.5464
2023-04-14T03:04:38.320Z,96.4893
2023-04-14T03:05:38.832Z,96.4358
2023-04-14T03:06:41.512Z,96.3358
2023-04-14T03:07:44.250Z,96.3196
2023-04-14T03:08:44.374Z,96.3721
2023-04-14T03:09:47.049Z,96.3526
2023-04-14T03:10:47.123Z,96.4437
2023-04-14T03:11:47.262Z,96.5419
2023-04-14T03:12:47.358Z,96.6128
2023-04-14T03:13:49.996Z,96.5477
2023-04-14T03:14:52.704Z,96.3939
2023-04-14T03:15:52.814Z,96.3373
2023-04-14T03:16:53.685Z,96.2668
2023-04-14T03:17:53.932Z,96.2432
2023-04-14T03:18:54.392Z,96.2051
2023-04-14T03:19:57.044Z,96.2808
2023-04-14T03:20:57.124Z,96.2367
2023-04-14T03:21:59.788Z,96.3221
2023-04-14T03:22:59.866Z,96.1598
2023-04-14T03:24:02.594Z,96.1498
2023-04-14T03:25:05.213Z,96.0750
2023-04-14T03:26:07.889Z,96.0437
2023-04-14T03:27:10.535Z,96.0192
2023-04-14T03:28:13.367Z,95.9352
2023-04-14T03:29:13.439Z,95.8851
2023-04-14T03:30:13.580Z,95.8795
2023-04-14T03:31:13.655Z,95.9058
2023-04-14T03:32:16.400Z,95.9939
2023-04-14T03:33:19.051Z,96.0172
2023-04-14T03:34:19.161Z,96.0464
2023-04-14T03:35:21.889Z,95.7768
2023-04-14T03:36:24.537Z,95.5907
2023-04-14T03:37:24.653Z,95.3743
2023-04-14T03:38:27.400Z,95.4692
2023-04-14T03:39:27.472Z,95.4845
2023-04-14T03:40:30.184Z,95.5598
2023-04-14T03:41:30.300Z,95.5654
2023-04-14T03:42:32.964Z,95.6339
2023-04-14T03:43:35.726Z,95.5264
2023-04-14T03:44:35.842Z,95.5111
2023-04-14T03:45:36.120Z,95.5343
2023-04-14T03:46:36.640Z,95.6942
2023-04-14T03:47:37.476Z,95.8054
2023-04-14T03:48:37.732Z,95.8792
2023-04-14T03:49:37.763Z,95.6713
2023-04-14T03:50:40.477Z,95.6769
2023-04-14T03:51:43.121Z,95.7254
2023-04-14T03:52:45.829Z,95.9311
2023-04-14T03:53:48.508Z,95.8811
2023-04-14T03:54:48.610Z,95.8416
2023-04-14T03:55:51.265Z,95.7921
2023-04-14T03:56:53.985Z,95.7681
2023-04-14T03:57:54.078Z,95.6596
2023-04-14T03:58:56.759Z,95.7959
2023-04-14T03:59:56.860Z,95.8326
2023-04-14T04:00:59.543Z,95.8602
2023-04-14T04:02:02.273Z,95.8015
2023-04-14T04:03:02.589Z,95.8747
2023-04-14T04:04:03.142Z,95.8730
2023-04-14T04:05:03.415Z,95.7608
2023-04-14T04:06:03.521Z,95.7188
2023-04-14T04:07:06.192Z,95.6802
2023-04-14T04:08:06.326Z,95.6665
2023-04-14T04:09:09.040Z,95.7101
2023-04-14T04:10:09.154Z,95.6526
2023-04-14T04:11:11.882Z,95.5960
2023-04-14T04:12:12.003Z,95.5248
2023-04-14T04:13:14.717Z,95.4953
2023-04-14T04:14:17.447Z,95.6355
2023-04-14T04:15:17.551Z,95.6288
2023-04-14T04:16:20.274Z,95.4982
2023-04-14T04:17:20.419Z,95.4776
2023-04-14T04:18:23.109Z,95.3442
2023-04-14T04:19:25.808Z,95.3248
2023-04-14T04:20:28.478Z,95.3231
2023-04-14T04:21:28.606Z,95.2718
2023-04-14T04:22:28.710Z,95.2317
2023-04-14T04:23:31.410Z,95.3783
2023-04-14T04:24:31.593Z,95.3006
2023-04-14T04:25:31.654Z,95.3408
2023-04-14T04:26:36.272Z,95.1390
2023-04-14T04:27:36.551Z,94.9393
2023-04-14T04:28:36.699Z,94.9492
2023-04-14T04:29:36.836Z,95.0182
2023-04-14T04:30:36.922Z,94.9597
2023-04-14T04:31:39.598Z,94.8856
2023-04-14T04:32:40.011Z,95.0693
2023-04-14T04:33:40.164Z,95.0916
2023-04-14T04:34:40.294Z,95.0706
2023-04-14T04:35:43.059Z,95.0974
2023-04-14T04:36:43.183Z,95.0329
2023-04-14T04:37:43.381Z,95.1071
2023-04-14T04:38:46.029Z,95.3130
2023-04-14T04:39:48.776Z,95.2690
2023-04-14T04:40:48.913Z,95.1951
2023-04-14T04:41:49.064Z,95.2061
2023-04-14T04:42:49.173Z,95.1478
2023-04-14T04:43:49.404Z,94.8882
2023-04-14T04:44:49.594Z,94.9467
2023-04-14T04:45:49.717Z,94.9802
2023-04-14T04:46:49.776Z,95.0212
2023-04-14T04:47:52.512Z,94.9346
2023-04-14T04:48:52.748Z,94.8173
2023-04-14T04:49:52.896Z,94.7981
2023-04-14T04:50:52.992Z,94.6167
2023-04-14T04:51:55.652Z,94.5305
2023-04-14T04:52:55.786Z,94.3526
2023-04-14T04:53:58.435Z,94.2756
2023-04-14T04:54:58.569Z,94.4067
2023-04-14T04:56:01.213Z,94.5620
2023-04-14T04:57:03.855Z,94.5619
2023-04-14T04:58:06.528Z,94.5029
2023-04-14T04:59:09.169Z,94.5139
2023-04-14T05:00:11.894Z,94.3182
2023-04-14T05:01:14.563Z,94.3510
2023-04-14T05:02:14.670Z,94.4904
2023-04-14T05:03:17.335Z,94.5411
2023-04-14T05:04:17.483Z,94.5687
2023-04-14T05:05:17.690Z,94.5400
2023-04-14T05:06:17.798Z,94.5253
2023-04-14T05:07:20.461Z,94.5482
2023-04-14T05:08:23.169Z,94.6448
2023-04-14T05:09:25.839Z,94.6115
2023-04-14T05:10:28.594Z,94.3834
2023-04-14T05:11:28.758Z,94.4332
2023-04-14T05:12:28.832Z,94.5177
2023-04-14T05:13:31.507Z,94.4036
2023-04-14T05:14:34.245Z,94.4235
2023-04-14T05:15:34.379Z,94.5541
2023-04-14T05:16:37.004Z,94.4914
2023-04-14T05:17:39.755Z,94.4648
2023-04-14T05:18:39.865Z,94.4115
2023-04-14T05:19:42.475Z,94.3419
2023-04-14T05:20:45.190Z,94.3199
2023-04-14T05:21:45.232Z,94.3612
2023-04-14T05:22:47.965Z,94.3107
2023-04-14T05:23:48.082Z,94.3784
2023-04-14T05:24:50.890Z,94.3541
2023-04-14T05:25:51.150Z,94.2657
2023-04-14T05:27:09.445Z,94.2656
2023-04-14T05:27:52.041Z,94.4173
2023-04-14T05:28:54.730Z,94.2974
2023-04-14T05:29:54.861Z,94.1799
2023-04-14T05:30:58.858Z,94.0202
2023-04-14T05:31:58.490Z,93.8044
2023-04-14T05:33:01.242Z,93.8410
2023-04-14T05:34:01.527Z,93.7970
2023-04-14T05:35:01.873Z,93.4966
2023-04-14T05:36:01.976Z,93.5357
2023-04-14T05:37:04.671Z,93.3837
2023-04-14T05:38:04.867Z,93.5115
2023-04-14T05:39:04.936Z,93.4840
2023-04-14T05:40:07.652Z,93.5538
2023-04-14T05:41:10.411Z,93.5102
2023-04-14T05:42:10.555Z,93.2388
2023-04-14T05:43:10.673Z,93.3589
2023-04-14T05:44:13.330Z,93.3760
2023-04-14T05:45:16.068Z,93.1817
2023-04-14T05:46:18.731Z,93.5174
2023-04-14T05:47:21.438Z,93.4912
2023-04-14T05:48:24.082Z,93.3929
2023-04-14T05:49:26.780Z,93.5939
2023-04-14T05:50:29.423Z,93.3800
2023-04-14T05:51:32.094Z,93.2033
2023-04-14T05:52:32.176Z,92.9330
2023-04-14T05:53:34.877Z,93.0544
2023-04-14T05:54:34.959Z,93.1131
2023-04-14T05:55:37.623Z,93.1326
2023-04-14T05:56:40.323Z,92.9934
2023-04-14T05:57:43.028Z,92.7708
2023-04-14T05:58:43.089Z,92.3483
2023-04-14T05:59:45.721Z,92.0240
2023-04-14T06:00:48.414Z,91.9640
2023-04-14T06:01:51.257Z,91.7490
2023-04-14T06:02:51.563Z,91.9969
2023-04-14T06:03:51.900Z,91.7295
2023-04-14T06:04:52.357Z,91.8860
2023-04-14T06:05:52.794Z,91.7518
2023-04-14T06:06:55.452Z,91.6932
2023-04-14T06:07:55.566Z,91.5837
2023-04-14T06:08:58.303Z,91.3085
2023-04-14T06:09:58.526Z,91.1102
2023-04-14T06:11:01.169Z,91.4219
2023-04-14T06:12:01.332Z,91.3690
2023-04-14T06:13:01.624Z,91.4686
2023-04-14T06:14:01.993Z,91.0365
2023-04-14T06:15:02.509Z,90.9267
2023-04-14T06:16:05.246Z,90.6468
2023-04-14T06:17:05.328Z,90.6586
2023-04-14T06:18:08.003Z,90.5784
2023-04-14T06:19:08.074Z,90.6889
2023-04-14T06:20:10.688Z,90.4742
2023-04-14T06:21:13.377Z,90.2764
2023-04-14T06:22:16.043Z,90.3097
2023-04-14T06:23:18.698Z,90.2574
2023-04-14T06:24:18.819Z,90.2918
2023-04-14T06:25:21.476Z,89.7675
2023-04-14T06:26:21.578Z,89.3861
2023-04-14T06:27:24.296Z,89.7894
2023-04-14T06:28:24.381Z,89.2601
2023-04-14T06:29:27.045Z,89.1831
2023-04-14T06:30:29.730Z,89.0483
2023-04-14T06:31:32.405Z,88.6063
2023-04-14T06:32:35.137Z,88.1960
2023-04-14T06:33:35.208Z,88.0934
2023-04-14T06:34:38.108Z,87.4340
2023-04-14T06:35:38.235Z,87.1827
2023-04-14T06:36:40.909Z,87.1024
2023-04-14T06:37:41.047Z,87.6873
2023-04-14T06:38:41.136Z,88.1062
2023-04-14T06:39:41.442Z,88.2199
2023-04-14T06:40:41.580Z,87.5789
2023-04-14T06:41:41.746Z,86.6048
2023-04-14T06:42:44.548Z,86.3701
2023-04-14T06:43:44.643Z,86.8814
2023-04-14T06:44:47.350Z,86.8428
2023-04-14T06:45:47.439Z,86.5631
2023-04-14T06:46:50.093Z,86.4164
2023-04-14T06:47:52.779Z,86.0924
2023-04-14T06:48:52.893Z,84.7656
2023-04-14T06:49:55.494Z,84.8499
2023-04-14T06:50:58.213Z,85.9340
2023-04-14T06:51:58.262Z,84.8637
2023-04-14T06:53:00.925Z,84.0133
2023-04-14T06:54:01.162Z,84.1888
2023-04-14T06:55:01.389Z,83.4299
2023-04-14T06:56:03.996Z,82.6881
2023-04-14T06:57:06.680Z,82.6689
2023-04-14T06:58:09.399Z,82.6068
2023-04-14T06:59:09.413Z,82.9148
2023-04-14T07:00:14.107Z,83.0234
2023-04-14T07:01:16.706Z,82.0145
2023-04-14T07:02:19.390Z,81.7988
2023-04-14T07:03:19.592Z,81.6178
2023-04-14T07:04:19.676Z,80.9169
2023-04-14T07:05:19.745Z,81.1924
2023-04-14T07:06:19.896Z,81.3414
2023-04-14T07:07:19.943Z,80.3926
2023-04-14T07:08:20.107Z,80.8286
2023-04-14T07:09:20.223Z,80.4026
2023-04-14T07:10:20.325Z,80.8099
2023-04-14T07:11:20.383Z,79.5844
2023-04-14T07:12:23.037Z,80.2527
2023-04-14T07:13:23.109Z,80.2254
2023-04-14T07:14:23.156Z,80.3728
2023-04-14T07:15:23.213Z,80.0133
2023-04-14T07:16:23.685Z,80.1486
2023-04-14T07:17:23.818Z,79.9226
2023-04-14T07:18:26.444Z,79.5848
2023-04-14T07:19:26.544Z,79.2930
2023-04-14T07:20:29.211Z,79.1170
2023-04-14T07:21:29.293Z,79.6698
2023-04-14T07:22:31.964Z,79.0161
2023-04-14T07:23:32.031Z,79.3837
2023-04-14T07:24:32.089Z,79.3238
2023-04-14T07:25:32.168Z,79.7900
2023-04-14T07:26:32.253Z,79.7732
2023-04-14T07:27:32.289Z,78.7602
2023-04-14T07:28:34.939Z,78.7922
2023-04-14T07:29:35.057Z,79.3425
2023-04-14T07:30:35.140Z,79.2864
2023-04-14T07:31:35.261Z,79.3039
2023-04-14T07:32:35.280Z,79.0671
2023-04-14T07:33:35.375Z,79.6695
2023-04-14T07:34:35.435Z,79.7208
2023-04-14T07:35:41.827Z,79.4147
2023-04-14T07:36:38.848Z,78.8767
2023-04-14T07:37:38.871Z,79.0007
2023-04-14T07:38:41.551Z,79.0872
2023-04-14T07:39:41.583Z,78.9932
2023-04-14T07:40:41.700Z,78.0279
2023-04-14T07:41:41.773Z,78.2769
2023-04-14T07:42:41.849Z,78.5016
2023-04-14T07:43:41.996Z,78.8830
2023-04-14T07:44:42.133Z,78.9461
2023-04-14T07:45:42.265Z,77.9531
2023-04-14T07:46:42.535Z,76.1331
2023-04-14T07:47:42.870Z,76.0130
2023-04-14T07:48:42.969Z,75.5770
2023-04-14T07:49:43.113Z,75.6178
2023-04-14T07:50:43.199Z,75.8589
2023-04-14T07:51:43.292Z,75.7744
2023-04-14T07:52:43.407Z,76.4361
2023-04-14T07:53:43.580Z,76.8028
2023-04-14T07:54:43.648Z,76.1327
2023-04-14T07:55:43.793Z,75.4713
2023-04-14T07:56:43.925Z,75.6235
2023-04-14T07:57:44.001Z,75.3495
2023-04-14T07:58:44.178Z,74.9018
2023-04-14T07:59:44.298Z,75.2136
2023-04-14T08:00:44.436Z,75.2593
2023-04-14T08:01:44.635Z,75.0540
2023-04-14T08:02:44.990Z,75.2876
2023-04-14T08:03:45.694Z,74.8635
2023-04-14T08:04:46.261Z,75.1871
2023-04-14T08:05:46.378Z,75.3006
2023-04-14T08:06:46.521Z,75.5424
2023-04-14T08:07:46.628Z,75.5573
2023-04-14T08:08:46.760Z,75.2309
2023-04-14T08:09:46.877Z,74.4732
2023-04-14T08:10:46.956Z,74.1912
2023-04-14T08:11:47.076Z,73.9278
2023-04-14T08:12:47.173Z,73.7494
2023-04-14T08:13:47.356Z,73.7854
2023-04-14T08:14:47.482Z,73.5470
2023-04-14T08:15:47.672Z,72.9054
2023-04-14T08:16:47.988Z,73.0412
2023-04-14T08:17:48.169Z,73.4196
2023-04-14T08:18:48.221Z,72.5979
2023-04-14T08:19:48.595Z,73.1721
2023-04-14T08:20:48.657Z,73.3039
2023-04-14T08:21:51.270Z,73.5050
2023-04-14T08:22:51.379Z,73.4328
2023-04-14T08:23:51.513Z,73.1542
2023-04-14T08:24:51.579Z,74.0688
2023-04-14T08:25:51.668Z,73.8791
2023-04-14T08:26:51.752Z,73.7944
2023-04-14T08:27:51.868Z,73.1179
2023-04-14T08:28:52.014Z,72.9246
2023-04-14T08:29:52.095Z,72.7758
2023-04-14T08:30:52.200Z,73.3495
2023-04-14T08:31:52.303Z,71.8050
2023-04-14T08:32:52.436Z,72.3726
2023-04-14T08:33:52.644Z,72.3060
2023-04-14T08:35:38.527Z,72.4699
2023-04-14T08:36:00.020Z,72.6954
2023-04-14T08:36:54.268Z,72.5133
2023-04-14T08:37:54.374Z,72.5268
2023-04-14T08:38:54.535Z,73.4285
2023-04-14T08:39:54.595Z,71.9228
2023-04-14T08:40:54.715Z,71.7579
2023-04-14T08:41:54.745Z,71.8238
2023-04-14T08:42:54.822Z,72.4341
2023-04-14T08:43:54.941Z,71.9640
2023-04-14T08:44:55.155Z,71.6925
2023-04-14T08:45:55.310Z,71.2801
2023-04-14T08:46:55.446Z,71.3031
2023-04-14T08:47:55.592Z,72.2102
2023-04-14T08:48:55.745Z,70.9818
2023-04-14T08:49:55.880Z,71.4896
2023-04-14T08:50:55.967Z,71.4806
2023-04-14T08:51:56.131Z,71.3190
2023-04-14T08:52:56.179Z,71.0167
2023-04-14T08:53:56.317Z,70.7488
2023-04-14T08:54:56.470Z,70.4509
2023-04-14T08:55:58.305Z,70.2991
2023-04-14T08:56:58.762Z,71.0406
2023-04-14T08:57:58.846Z,70.9639
2023-04-14T08:58:58.974Z,69.8821
2023-04-14T08:59:59.075Z,70.3579
2023-04-14T09:00:59.255Z,69.6578
2023-04-14T09:01:59.481Z,69.3436
2023-04-14T09:02:59.796Z,69.7719
2023-04-14T09:04:00.667Z,69.5660
2023-04-14T09:05:01.338Z,69.7815
2023-04-14T09:06:01.481Z,69.3759
2023-04-14T09:07:01.556Z,68.8970
2023-04-14T09:08:01.660Z,69.0668
2023-04-14T09:09:01.764Z,70.2967
2023-04-14T09:10:01.847Z,69.1979
2023-04-14T09:11:01.985Z,68.9683
2023-04-14T09:12:02.110Z,68.6641
2023-04-14T09:13:02.202Z,67.7907
2023-04-14T09:14:02.496Z,67.6767
2023-04-14T09:15:02.874Z,66.6311
2023-04-14T09:16:03.003Z,66.1088
2023-04-14T09:17:03.211Z,66.3594
2023-04-14T09:18:03.374Z,66.5328
2023-04-14T09:19:06.697Z,66.5892
2023-04-14T09:20:38.749Z,65.5232
2023-04-14T09:21:31.774Z,66.4901
2023-04-14T09:22:06.885Z,66.1933
2023-04-14T09:23:07.021Z,64.7146
2023-04-14T09:24:07.776Z,63.3478
2023-04-14T09:25:08.676Z,61.8932
2023-04-14T09:26:08.769Z,61.7027
2023-04-14T09:27:08.875Z,63.2847
2023-04-14T09:28:08.967Z,64.0399
2023-04-14T09:29:09.068Z,64.6595
2023-04-14T09:30:09.138Z,65.3046
2023-04-14T09:31:09.255Z,66.1108
2023-04-14T09:32:09.329Z,64.6494
2023-04-14T09:33:09.488Z,65.1041
2023-04-14T09:34:09.643Z,63.6224
2023-04-14T09:35:09.700Z,64.0838
2023-04-14T09:36:09.794Z,64.7261
2023-04-14T09:37:09.873Z,64.9689
2023-04-14T09:38:09.979Z,64.8560
2023-04-14T09:39:10.068Z,64.1708
2023-04-14T09:40:10.121Z,63.8277
2023-04-14T09:41:10.190Z,62.8293
2023-04-14T09:42:10.247Z,62.7332
2023-04-14T09:43:10.350Z,62.3269
2023-04-14T09:44:10.463Z,61.4903
2023-04-14T09:45:10.568Z,63.4674
2023-04-14T09:46:10.736Z,63.9001
2023-04-14T09:47:10.901Z,64.2719
2023-04-14T09:48:11.010Z,64.5581
2023-04-14T09:49:11.083Z,64.6429
2023-04-14T09:50:11.105Z,64.5473
2023-04-14T09:51:11.169Z,62.7481
2023-04-14T09:52:11.197Z,61.1181
2023-04-14T09:53:11.310Z,60.4036
2023-04-14T09:54:11.380Z,60.8572
2023-04-14T09:55:11.476Z,61.3434
2023-04-14T09:56:11.549Z,60.7721
2023-04-14T09:57:11.670Z,60.1809
2023-04-14T09:58:11.743Z,59.5034
2023-04-14T09:59:11.811Z,58.4746
2023-04-14T10:00:11.923Z,59.1038
2023-04-14T10:01:12.048Z,59.6640
2023-04-14T10:02:12.327Z,59.0671
2023-04-14T10:03:12.436Z,59.1336
2023-04-14T10:04:12.652Z,58.1795
2023-04-14T10:05:12.825Z,57.2289
2023-04-14T10:06:13.236Z,58.5010
2023-04-14T10:07:13.312Z,59.6283
2023-04-14T10:08:13.396Z,59.1435
2023-04-14T10:09:13.505Z,58.1028
2023-04-14T10:10:13.630Z,57.2077
2023-04-14T10:11:13.638Z,57.6146
2023-04-14T10:12:13.715Z,56.4350
2023-04-14T10:13:13.789Z,56.4985
2023-04-14T10:14:13.868Z,56.8677
2023-04-14T10:15:13.976Z,57.2603
2023-04-14T10:16:14.142Z,56.8255
2023-04-14T10:17:14.220Z,56.8582
2023-04-14T10:18:14.266Z,56.6346
2023-04-14T10:19:14.363Z,55.2391
2023-04-14T10:20:14.387Z,55.3627
2023-04-14T10:21:14.477Z,54.5407
2023-04-14T10:22:14.512Z,53.9911
2023-04-14T10:23:14.564Z,54.5763
2023-04-14T10:24:14.634Z,53.9942
2023-04-14T10:25:14.686Z,55.7022
2023-04-14T10:26:14.712Z,56.3657
2023-04-14T10:27:14.743Z,57.0319
2023-04-14T10:28:14.829Z,56.7003
2023-04-14T10:29:14.878Z,56.3563
2023-04-14T10:30:14.927Z,55.9300
2023-04-14T10:31:15.052Z,55.6023
2023-04-14T10:32:15.139Z,54.9830
2023-04-14T10:33:15.179Z,54.6995
2023-04-14T10:34:15.247Z,53.1567
2023-04-14T10:35:15.312Z,53.4248
2023-04-14T10:36:15.353Z,54.9711
2023-04-14T10:37:15.424Z,54.2452
2023-04-14T10:38:15.454Z,54.2995
2023-04-14T10:39:15.552Z,54.2702
2023-04-14T10:40:15.636Z,53.3976
2023-04-14T10:41:15.716Z,53.9920
2023-04-14T10:42:15.794Z,53.9209
2023-04-14T10:43:15.821Z,54.2353
2023-04-14T10:44:15.867Z,54.0490
2023-04-14T10:45:15.943Z,53.3573
2023-04-14T10:46:18.538Z,53.3784
2023-04-14T10:47:16.333Z,53.9649
2023-04-14T10:48:16.385Z,53.7789
2023-04-14T10:49:16.492Z,54.1430
2023-04-14T10:50:16.555Z,53.7261
2023-04-14T10:51:16.568Z,52.7513
2023-04-14T10:52:16.593Z,52.0773
2023-04-14T10:53:16.664Z,51.6083
2023-04-14T10:54:16.729Z,50.4669
2023-04-14T10:55:16.811Z,50.0957
2023-04-14T10:56:16.872Z,49.2644
2023-04-14T10:57:16.919Z,49.3278
2023-04-14T10:58:16.979Z,48.6472
2023-04-14T10:59:17.061Z,48.0690
2023-04-14T11:00:17.141Z,48.4887
2023-04-14T11:01:17.213Z,48.5119
2023-04-14T11:02:17.338Z,48.5336
2023-04-14T11:03:17.550Z,49.2483
2023-04-14T11:04:17.857Z,50.8654
2023-04-14T11:05:18.135Z,50.7226
2023-04-14T11:06:18.178Z,49.7296
2023-04-14T11:07:18.189Z,47.6040
2023-04-14T11:08:18.238Z,47.6824
2023-04-14T11:09:18.267Z,48.8942
2023-04-14T11:10:18.505Z,47.3339
2023-04-14T11:11:18.801Z,46.8798
2023-04-14T11:12:18.826Z,47.8587
2023-04-14T11:13:18.863Z,47.6864
2023-04-14T11:14:18.851Z,48.6416
2023-04-14T11:15:18.919Z,48.9344
2023-04-14T11:16:19.013Z,49.0710
2023-04-14T11:17:19.087Z,47.7511
2023-04-14T11:18:19.183Z,47.9897
2023-04-14T11:19:19.216Z,48.6150
2023-04-14T11:20:19.266Z,48.7392
2023-04-14T11:21:19.310Z,47.3685
2023-04-14T11:22:19.334Z,44.8632
2023-04-14T11:23:19.353Z,45.1402
2023-04-14T11:24:19.391Z,46.1453
2023-04-14T11:25:21.552Z,46.7992
2023-04-14T11:26:21.540Z,45.6705
2023-04-14T11:27:21.557Z,44.4047
2023-04-14T11:28:21.601Z,42.2751
2023-04-14T11:29:21.638Z,42.3496
2023-04-14T11:30:21.752Z,42.8053
2023-04-14T11:31:23.297Z,43.0622
2023-04-14T11:32:23.449Z,42.7438
2023-04-14T11:33:23.468Z,41.5358
2023-04-14T11:34:23.436Z,44.2788
2023-04-14T11:35:23.431Z,44.1137
2023-04-14T11:36:23.418Z,43.5075
2023-04-14T11:37:23.402Z,44.2654
2023-04-14T11:38:23.403Z,43.0788
2023-04-14T11:39:23.410Z,42.3031
2023-04-14T11:40:23.436Z,41.7265
2023-04-14T11:41:23.408Z,41.7211
2023-04-14T11:42:23.403Z,42.4367
2023-04-14T11:43:23.422Z,41.6923
2023-04-14T11:44:23.453Z,42.0815
2023-04-14T11:45:23.438Z,42.1889
2023-04-14T11:46:23.489Z,41.9370
2023-04-14T11:47:23.615Z,42.5661
2023-04-14T11:48:23.636Z,43.3059
2023-04-14T11:49:23.701Z,41.3628
2023-04-14T11:50:23.733Z,40.0924
2023-04-14T11:51:23.720Z,38.1998
2023-04-14T11:52:23.733Z,38.1041
2023-04-14T11:53:23.733Z,38.5589
2023-04-14T11:54:23.739Z,36.4881
2023-04-14T11:55:23.733Z,35.8477
2023-04-14T11:56:23.769Z,35.7932
2023-04-14T11:57:23.728Z,35.9109
2023-04-14T11:58:23.777Z,39.2327
2023-04-14T11:59:23.747Z,42.2281
2023-04-14T12:00:23.728Z,41.3384
2023-04-14T12:01:23.675Z,41.0212
2023-04-14T12:02:23.668Z,40.1632
2023-04-14T12:03:23.810Z,40.7834
2023-04-14T12:04:24.315Z,39.8434
2023-04-14T12:05:24.522Z,38.0157
2023-04-14T12:06:24.515Z,38.1785
2023-04-14T12:07:24.482Z,38.7762
2023-04-14T12:08:24.716Z,42.8400
2023-04-14T12:09:24.879Z,43.6802
2023-04-14T12:10:24.836Z,43.4350
2023-04-14T12:11:24.818Z,42.1674
2023-04-14T12:12:25.278Z,43.8523
2023-04-14T12:13:26.477Z,42.1800
2023-04-14T12:14:26.453Z,40.0888
2023-04-14T12:15:26.416Z,40.3037
2023-04-14T12:16:26.392Z,40.8484
2023-04-14T12:17:26.385Z,41.5110